Time;durP1;ratioP1;P1;durP2;ratioP2;P2;SDS_P1;SDS_P2;PMS_P1;PMS_P2;Temp;Humidity;BMP_temperature;BMP_pressure;BME280_temperature;BME280_humidity;BME280_pressure;Samples;Min_cycle;Max_cycle;Signal;HPM_P1;HPM_P2
2023/07/07 00:02:21;;;;;;;7.80;5.10;;;12.60;99.90;;;;;;7383327;19;20078;-62
2023/07/07 00:04:47;;;;;;;6.88;4.95;;;12.60;99.90;;;;;;7389730;19;20381;-63
2023/07/07 00:07:14;;;;;;;7.38;5.28;;;12.60;99.90;;;;;;7386218;19;20014;-63
2023/07/07 00:09:40;;;;;;;5.93;4.57;;;12.50;99.90;;;;;;7383817;19;20021;-63
2023/07/07 00:12:07;;;;;;;5.88;4.43;;;12.50;99.90;;;;;;7373538;19;20059;-63
2023/07/07 00:14:34;;;;;;;6.30;4.43;;;12.50;99.90;;;;;;7381485;19;20022;-63
2023/07/07 00:17:01;;;;;;;6.85;4.82;;;12.40;99.90;;;;;;7381352;19;20015;-62
2023/07/07 00:19:32;;;;;;;6.40;4.57;;;12.40;99.90;;;;;;7383359;19;20074;-63
2023/07/07 00:22:03;;;;;;;5.70;5.03;;;12.40;99.90;;;;;;7376770;19;20022;-62
2023/07/07 00:24:29;;;;;;;7.40;4.95;;;12.30;99.90;;;;;;7390544;19;20279;-67
2023/07/07 00:27:00;;;;;;;7.30;4.80;;;12.30;99.90;;;;;;7386692;19;20014;-66
2023/07/07 00:29:27;;;;;;;6.95;5.63;;;12.20;99.90;;;;;;7394276;19;20123;-66
2023/07/07 00:31:53;;;;;;;8.93;5.55;;;12.20;99.90;;;;;;7389418;19;20745;-62
2023/07/07 00:34:20;;;;;;;6.78;5.45;;;12.20;99.90;;;;;;7378016;19;20500;-62
2023/07/07 00:36:46;;;;;;;7.82;5.20;;;12.30;99.90;;;;;;7392422;19;20493;-66
2023/07/07 00:39:12;;;;;;;7.82;5.30;;;12.20;99.90;;;;;;7393332;19;20021;-66
2023/07/07 00:41:39;;;;;;;7.18;5.07;;;12.20;99.90;;;;;;7395663;19;20014;-66
2023/07/07 00:44:09;;;;;;;7.25;5.65;;;12.20;99.90;;;;;;7381932;19;20026;-62
2023/07/07 00:46:37;;;;;;;9.80;6.40;;;12.20;99.90;;;;;;7377378;19;20038;-62
2023/07/07 00:49:13;;;;;;;8.65;6.35;;;12.10;99.90;;;;;;7378753;19;20508;-64
2023/07/07 00:51:45;;;;;;;6.05;5.25;;;12.10;99.90;;;;;;7378300;19;20672;-62
2023/07/07 00:54:16;;;;;;;8.82;5.78;;;12.10;99.90;;;;;;7378763;19;20025;-62
2023/07/07 00:56:52;;;;;;;6.07;5.17;;;12.10;99.90;;;;;;7377394;19;20032;-62
2023/07/07 00:59:33;;;;;;;8.25;5.82;;;12.10;99.90;;;;;;7377566;19;20014;-63
2023/07/07 01:02:03;;;;;;;7.35;5.93;;;12.10;99.90;;;;;;7392088;19;20014;-67
2023/07/07 01:04:31;;;;;;;8.27;6.13;;;12.10;99.90;;;;;;7391484;19;20003;-63
2023/07/07 01:07:06;;;;;;;6.25;5.40;;;12.10;99.90;;;;;;7387428;19;20018;-66
2023/07/07 01:09:32;;;;;;;6.78;5.50;;;12.00;99.90;;;;;;7395048;19;20090;-67
2023/07/07 01:11:59;;;;;;;6.05;5.03;;;11.90;99.90;;;;;;7383418;19;20022;-62
2023/07/07 01:14:29;;;;;;;8.60;6.00;;;12.00;99.90;;;;;;7378300;19;20078;-63
2023/07/07 01:17:39;;;;;;;8.13;5.63;;;11.90;99.90;;;;;;7371619;19;20035;-62
2023/07/07 01:20:15;;;;;;;7.45;5.28;;;11.90;99.90;;;;;;7394066;19;20619;-66
2023/07/07 01:23:07;;;;;;;7.82;5.65;;;11.90;99.90;;;;;;7394854;19;20070;-66
2023/07/07 01:25:55;;;;;;;6.18;5.55;;;11.80;99.90;;;;;;7382891;19;20010;-62
2023/07/07 01:28:43;;;;;;;7.07;5.80;;;11.80;99.90;;;;;;7375637;19;20492;-62
2023/07/07 01:31:45;;;;;;;8.65;6.43;;;11.80;99.90;;;;;;7375675;19;20025;-63
2023/07/07 01:34:15;;;;;;;11.05;8.15;;;11.80;99.90;;;;;;7389252;19;20018;-66
2023/07/07 01:36:42;;;;;;;11.65;9.23;;;11.80;99.90;;;;;;7390941;19;20030;-66
2023/07/07 01:39:11;;;;;;;13.93;11.25;;;11.80;99.90;;;;;;7394211;19;20018;-65
2023/07/07 01:41:51;;;;;;;13.65;11.43;;;11.80;99.90;;;;;;7393063;19;20078;-66
2023/07/07 01:44:58;;;;;;;12.60;11.27;;;11.90;99.90;;;;;;7393757;19;20082;-66
2023/07/07 01:47:33;;;;;;;15.18;11.70;;;11.90;99.90;;;;;;7389676;19;20018;-63
2023/07/07 01:50:08;;;;;;;14.93;12.20;;;11.90;99.90;;;;;;7380033;19;20022;-63
2023/07/07 01:52:39;;;;;;;13.60;12.20;;;12.00;99.90;;;;;;7378719;19;20023;-63
2023/07/07 01:55:17;;;;;;;16.05;11.98;;;11.90;99.90;;;;;;7375434;19;20021;-63
2023/07/07 01:57:46;;;;;;;15.15;12.82;;;11.90;99.90;;;;;;7376639;19;20082;-63
2023/07/07 02:00:15;;;;;;;16.52;13.10;;;12.00;99.90;;;;;;7377091;19;20025;-63
2023/07/07 02:02:44;;;;;;;16.60;14.82;;;12.00;99.90;;;;;;7377920;19;20033;-62
2023/07/07 02:05:13;;;;;;;24.35;15.32;;;12.00;99.90;;;;;;7375242;19;20406;-62
2023/07/07 02:07:42;;;;;;;18.05;15.13;;;12.00;99.90;;;;;;7375260;19;20022;-62
2023/07/07 02:10:09;;;;;;;16.77;15.20;;;12.00;99.90;;;;;;7378188;19;20485;-63
2023/07/07 02:12:35;;;;;;;17.67;15.88;;;12.00;99.90;;;;;;7379399;19;20029;-62
2023/07/07 02:15:02;;;;;;;18.73;16.67;;;12.00;99.90;;;;;;7374719;19;20029;-62
2023/07/07 02:17:29;;;;;;;18.58;16.70;;;12.00;99.90;;;;;;7376066;19;20540;-63
2023/07/07 02:19:56;;;;;;;22.27;18.40;;;12.00;99.90;;;;;;7387428;19;20033;-66
2023/07/07 02:22:23;;;;;;;19.25;17.25;;;11.90;99.90;;;;;;7392606;19;20470;-67
2023/07/07 02:24:49;;;;;;;19.88;17.23;;;11.90;99.90;;;;;;7391037;19;20475;-66
2023/07/07 02:27:37;;;;;;;19.45;17.00;;;11.90;99.90;;;;;;7395452;19;20011;-67
2023/07/07 02:30:03;;;;;;;20.35;18.00;;;11.90;99.90;;;;;;7394123;19;20521;-66
2023/07/07 02:32:30;;;;;;;17.17;15.10;;;11.90;99.90;;;;;;7393656;19;20023;-67
2023/07/07 02:34:58;;;;;;;18.85;16.67;;;11.80;99.90;;;;;;7393190;19;20019;-67
2023/07/07 02:37:27;;;;;;;22.00;17.40;;;11.80;99.90;;;;;;7400432;19;20007;-67
2023/07/07 02:39:56;;;;;;;20.38;18.35;;;11.80;99.90;;;;;;7397599;19;20078;-66
2023/07/07 02:42:23;;;;;;;21.80;19.23;;;11.80;99.90;;;;;;7399659;19;20081;-66
2023/07/07 02:44:49;;;;;;;25.77;19.88;;;11.80;99.90;;;;;;7400043;19;20493;-66
2023/07/07 02:47:15;;;;;;;23.25;20.13;;;11.80;99.90;;;;;;7398476;19;20021;-66
2023/07/07 02:49:41;;;;;;;20.67;18.52;;;11.70;99.90;;;;;;7396693;19;20028;-66
2023/07/07 02:52:08;;;;;;;20.63;18.42;;;11.70;99.90;;;;;;7397095;19;20448;-66
2023/07/07 02:54:35;;;;;;;23.83;20.80;;;11.70;99.90;;;;;;7398998;19;20010;-66
2023/07/07 02:57:03;;;;;;;22.52;20.13;;;11.70;99.90;;;;;;7398291;19;20022;-66
2023/07/07 02:59:29;;;;;;;23.17;20.58;;;11.70;99.90;;;;;;7397621;19;20081;-66
2023/07/07 03:01:56;;;;;;;22.27;20.02;;;11.70;99.90;;;;;;7398127;19;20026;-66
2023/07/07 03:04:24;;;;;;;20.83;18.65;;;11.70;99.90;;;;;;7396725;19;20484;-66
2023/07/07 03:06:51;;;;;;;22.23;20.08;;;11.60;99.90;;;;;;7395687;19;20074;-66
2023/07/07 03:09:18;;;;;;;22.88;20.48;;;11.60;99.90;;;;;;7395420;19;20018;-66
2023/07/07 03:11:46;;;;;;;21.67;19.48;;;11.60;99.90;;;;;;7393734;19;20441;-65
2023/07/07 03:14:17;;;;;;;23.65;21.15;;;11.60;99.90;;;;;;7394825;19;20034;-66
2023/07/07 03:16:47;;;;;;;26.70;23.13;;;11.60;99.90;;;;;;7393394;19;20528;-63
2023/07/07 03:19:19;;;;;;;24.73;22.23;;;11.60;99.90;;;;;;7377860;19;20029;-62
2023/07/07 03:21:55;;;;;;;23.88;21.58;;;11.60;99.90;;;;;;7379983;19;20357;-62
2023/07/07 03:24:28;;;;;;;24.27;21.80;;;11.60;99.90;;;;;;7393076;19;20499;-66
2023/07/07 03:26:54;;;;;;;25.52;22.90;;;11.60;99.90;;;;;;7393470;19;20776;-66
2023/07/07 03:29:23;;;;;;;29.42;25.30;;;11.60;99.90;;;;;;7391865;19;20391;-66
2023/07/07 03:31:50;;;;;;;27.95;23.33;;;11.60;99.90;;;;;;7381567;19;20142;-62
2023/07/07 03:34:18;;;;;;;27.25;24.33;;;11.70;99.90;;;;;;7376463;19;20018;-62
2023/07/07 03:36:45;;;;;;;30.30;26.55;;;11.70;99.90;;;;;;7378457;19;20133;-62
2023/07/07 03:39:14;;;;;;;29.52;24.90;;;11.70;99.90;;;;;;7373574;19;20109;-62
2023/07/07 03:41:43;;;;;;;29.35;26.40;;;11.80;99.90;;;;;;7380174;19;20429;-62
2023/07/07 03:44:09;;;;;;;31.67;28.27;;;11.80;99.90;;;;;;7378123;19;20358;-62
2023/07/07 03:46:36;;;;;;;32.00;25.30;;;11.80;99.90;;;;;;7389547;19;20011;-65
2023/07/07 03:49:03;;;;;;;28.40;25.38;;;11.80;99.90;;;;;;7391976;19;20453;-65
2023/07/07 03:51:36;;;;;;;29.92;26.98;;;11.80;99.90;;;;;;7391064;19;20010;-65
2023/07/07 03:54:05;;;;;;;27.50;24.58;;;11.80;99.90;;;;;;7381401;19;20382;-65
2023/07/07 03:56:34;;;;;;;28.65;25.55;;;11.80;99.90;;;;;;7375575;19;20727;-62
2023/07/07 03:59:01;;;;;;;28.65;25.42;;;11.80;99.90;;;;;;7383266;19;20015;-66
2023/07/07 04:01:27;;;;;;;29.67;25.17;;;11.80;99.90;;;;;;7380854;19;20632;-63
2023/07/07 04:03:54;;;;;;;30.27;26.88;;;11.80;99.90;;;;;;7385933;19;20021;-66
2023/07/07 04:06:21;;;;;;;29.52;26.10;;;11.80;99.90;;;;;;7385771;19;20015;-63
2023/07/07 04:08:50;;;;;;;32.08;25.98;;;11.90;99.90;;;;;;7377003;19;20014;-62
2023/07/07 04:11:19;;;;;;;31.88;27.08;;;11.90;99.90;;;;;;7380984;19;20473;-63
2023/07/07 04:13:47;;;;;;;29.70;26.52;;;11.90;99.90;;;;;;7377880;19;20749;-62
2023/07/07 04:16:17;;;;;;;28.90;25.90;;;11.90;99.90;;;;;;7377330;19;20023;-62
2023/07/07 04:18:45;;;;;;;29.58;26.42;;;12.00;99.90;;;;;;7377194;19;20074;-69
2023/07/07 04:21:15;;;;;;;30.23;27.08;;;12.10;99.90;;;;;;7376973;19;20019;-63
2023/07/07 04:23:44;;;;;;;32.45;29.05;;;12.10;99.90;;;;;;7385284;19;20843;-63
2023/07/07 04:26:11;;;;;;;30.42;26.98;;;12.20;99.90;;;;;;7386819;19;20022;-66
2023/07/07 04:28:38;;;;;;;33.92;28.45;;;12.30;99.90;;;;;;7382970;19;20082;-63
2023/07/07 04:31:07;;;;;;;35.17;27.52;;;12.30;99.90;;;;;;7381120;19;20413;-66
2023/07/07 04:33:36;;;;;;;32.72;29.23;;;12.40;99.90;;;;;;7393264;19;20023;-66
2023/07/07 04:36:06;;;;;;;32.70;27.85;;;12.50;99.90;;;;;;7390124;19;20031;-66
2023/07/07 04:38:33;;;;;;;33.08;28.08;;;12.50;99.90;;;;;;7380019;19;20014;-63
2023/07/07 04:41:09;;;;;;;37.55;28.98;;;12.70;99.90;;;;;;7378201;19;20023;-63
2023/07/07 04:43:38;;;;;;;32.03;28.50;;;12.70;99.90;;;;;;7377936;19;20548;-63
2023/07/07 04:46:05;;;;;;;31.23;27.00;;;12.80;99.90;;;;;;7377419;19;20014;-63
2023/07/07 04:48:32;;;;;;;30.05;24.80;;;12.90;99.90;;;;;;7378462;19;20019;-62
2023/07/07 04:51:06;;;;;;;30.40;27.20;;;13.00;99.90;;;;;;7375636;19;20026;-63
2023/07/07 04:53:33;;;;;;;29.80;26.33;;;13.10;99.90;;;;;;7375487;19;20018;-63
2023/07/07 04:56:00;;;;;;;29.92;25.27;;;13.20;99.90;;;;;;7371550;19;20026;-63
2023/07/07 04:58:27;;;;;;;29.48;26.10;;;13.30;99.90;;;;;;7378377;19;20039;-65
2023/07/07 05:01:06;;;;;;;32.25;26.73;;;13.30;99.90;;;;;;7391257;19;20102;-65
2023/07/07 05:03:34;;;;;;;27.85;24.90;;;13.50;99.90;;;;;;7392432;19;20496;-66
2023/07/07 05:06:03;;;;;;;28.05;25.23;;;13.50;99.90;;;;;;7390975;19;20142;-66
2023/07/07 05:08:32;;;;;;;27.42;24.45;;;13.60;99.90;;;;;;7391921;19;20024;-63
2023/07/07 05:10:58;;;;;;;26.42;23.70;;;13.70;99.90;;;;;;7372460;19;21416;-63
2023/07/07 05:13:26;;;;;;;24.40;22.02;;;14.00;99.90;;;;;;7376930;19;20018;-63
2023/07/07 05:16:04;;;;;;;22.83;20.40;;;14.40;99.90;;;;;;7371475;19;20019;-63
2023/07/07 05:18:30;;;;;;;21.13;18.98;;;14.90;99.90;;;;;;7374002;19;20374;-63
2023/07/07 05:20:57;;;;;;;20.73;18.48;;;15.40;99.90;;;;;;7377310;19;20022;-63
2023/07/07 05:23:24;;;;;;;22.65;18.45;;;15.80;99.90;;;;;;7381653;19;20025;-64
2023/07/07 05:25:51;;;;;;;21.35;17.33;;;16.00;99.90;;;;;;7395085;19;20046;-65
2023/07/07 05:28:18;;;;;;;18.20;16.33;;;16.30;99.90;;;;;;7367484;19;20498;-65
2023/07/07 05:30:44;;;;;;;19.20;16.88;;;16.60;99.90;;;;;;7370389;19;20019;-64
2023/07/07 05:33:11;;;;;;;18.25;16.35;;;16.90;99.90;;;;;;7397590;19;20031;-64
2023/07/07 05:35:49;;;;;;;17.30;15.57;;;17.10;99.90;;;;;;7397372;19;20350;-64
2023/07/07 05:38:17;;;;;;;17.13;15.23;;;17.40;99.90;;;;;;7389826;19;20018;-66
2023/07/07 05:40:46;;;;;;;16.85;15.00;;;17.60;99.90;;;;;;7378144;19;20023;-67
2023/07/07 05:43:13;;;;;;;17.40;14.52;;;17.80;99.90;;;;;;7383985;19;20768;-65
2023/07/07 05:46:01;;;;;;;17.27;14.88;;;18.00;99.90;;;;;;7391386;19;20015;-64
2023/07/07 05:48:28;;;;;;;17.08;15.40;;;18.20;99.90;;;;;;7372835;19;20428;-65
2023/07/07 05:50:57;;;;;;;152.73;136.00;;;18.50;99.90;;;;;;7372527;19;20032;-66
2023/07/07 05:53:23;;;;;;;23.05;17.40;;;18.60;99.90;;;;;;7372619;19;20745;-67
2023/07/07 05:55:50;;;;;;;19.40;17.30;;;18.80;99.90;;;;;;7373940;19;20018;-66
2023/07/07 05:58:17;;;;;;;16.77;15.13;;;18.80;99.90;;;;;;7373196;19;20386;-66
2023/07/07 06:00:46;;;;;;;23.25;20.58;;;19.00;99.90;;;;;;7394063;19;20082;-65
2023/07/07 06:03:13;;;;;;;28.77;25.65;;;19.20;99.90;;;;;;7371716;19;20086;-66
2023/07/07 06:05:39;;;;;;;38.10;33.97;;;19.40;99.90;;;;;;7372133;19;20015;-66
2023/07/07 06:08:05;;;;;;;19.58;17.20;;;19.60;99.90;;;;;;7371034;19;20367;-66
2023/07/07 06:10:32;;;;;;;14.63;13.23;;;19.70;99.90;;;;;;7371267;19;20114;-66
2023/07/07 06:13:00;;;;;;;34.53;30.25;;;19.80;99.90;;;;;;7375409;19;20022;-66
2023/07/07 06:15:27;;;;;;;14.48;12.02;;;20.00;99.90;;;;;;7375139;19;20503;-65
2023/07/07 06:17:53;;;;;;;14.50;12.00;;;19.90;99.90;;;;;;7376458;19;20051;-63
2023/07/07 06:20:19;;;;;;;14.13;11.88;;;20.20;99.90;;;;;;7374313;19;20659;-63
2023/07/07 06:22:46;;;;;;;12.13;10.90;;;20.40;99.90;;;;;;7372294;19;20026;-63
2023/07/07 06:25:12;;;;;;;13.55;11.75;;;20.40;99.90;;;;;;7375291;19;20023;-63
2023/07/07 06:27:38;;;;;;;14.02;10.75;;;20.60;99.90;;;;;;7374721;19;20019;-63
2023/07/07 06:30:07;;;;;;;11.93;10.43;;;20.60;99.90;;;;;;7381376;19;20002;-67
2023/07/07 06:32:33;;;;;;;13.05;10.68;;;20.80;99.90;;;;;;7393045;19;20018;-67
2023/07/07 06:35:00;;;;;;;10.38;9.23;;;20.80;99.90;;;;;;7395804;19;20034;-67
2023/07/07 06:37:26;;;;;;;10.93;9.80;;;20.80;99.90;;;;;;7372580;19;20045;-63
2023/07/07 06:39:52;;;;;;;12.93;9.10;;;20.90;99.90;;;;;;7370289;19;20018;-66
2023/07/07 06:42:22;;;;;;;11.90;9.30;;;21.20;99.90;;;;;;7392781;19;20038;-66
2023/07/07 06:44:56;;;;;;;10.48;9.02;;;21.20;99.90;;;;;;7375937;19;20023;-71
2023/07/07 06:47:25;;;;;;;11.85;9.00;;;21.50;99.90;;;;;;7380789;19;20042;-64
2023/07/07 06:49:52;;;;;;;9.70;8.07;;;21.70;99.90;;;;;;7379264;19;20568;-62
2023/07/07 06:52:19;;;;;;;10.50;7.57;;;21.80;99.90;;;;;;7360153;19;20593;-63
2023/07/07 06:54:45;;;;;;;9.20;7.22;;;22.00;99.90;;;;;;7370899;19;20029;-61
2023/07/07 06:57:11;;;;;;;11.95;7.80;;;22.20;99.90;;;;;;7372129;19;20026;-61
2023/07/07 06:59:38;;;;;;;8.43;6.97;;;22.30;99.90;;;;;;7378590;19;20011;-64
2023/07/07 07:02:09;;;;;;;9.77;7.13;;;22.50;99.90;;;;;;7377479;19;20078;-62
2023/07/07 07:04:36;;;;;;;10.45;6.95;;;22.70;99.90;;;;;;7372267;19;21881;-62
2023/07/07 07:07:02;;;;;;;9.98;6.45;;;22.70;99.90;;;;;;7373576;19;20022;-61
2023/07/07 07:09:28;;;;;;;9.63;6.22;;;22.70;99.90;;;;;;7376243;19;20021;-62
2023/07/07 07:11:57;;;;;;;9.00;5.35;;;23.00;99.90;;;;;;7371657;19;20021;-62
2023/07/07 07:14:24;;;;;;;9.38;5.45;;;23.00;99.90;;;;;;7373673;19;20014;-66
2023/07/07 07:16:50;;;;;;;6.78;4.65;;;23.10;99.90;;;;;;7382424;19;20365;-62
2023/07/07 07:19:16;;;;;;;10.48;4.43;;;23.20;99.90;;;;;;7371803;19;21626;-62
2023/07/07 07:21:42;;;;;;;11.85;10.50;;;23.40;99.90;;;;;;7376148;19;20383;-62
2023/07/07 07:24:09;;;;;;;8.90;4.50;;;23.50;99.90;;;;;;7381275;19;20484;-62
2023/07/07 07:26:35;;;;;;;7.70;4.53;;;23.70;99.90;;;;;;7381542;19;20045;-62
2023/07/07 07:29:01;;;;;;;5.97;3.20;;;23.90;99.90;;;;;;7380390;19;20597;-62
2023/07/07 07:31:27;;;;;;;6.50;3.95;;;24.00;99.90;;;;;;7380606;19;20607;-61
2023/07/07 07:33:55;;;;;;;5.43;3.22;;;24.20;99.90;;;;;;7383907;19;20552;-61
2023/07/07 07:36:21;;;;;;;6.35;3.20;;;24.40;99.90;;;;;;7382812;19;20026;-61
2023/07/07 07:38:49;;;;;;;7.28;3.45;;;24.40;99.90;;;;;;7391599;19;20042;-65
2023/07/07 07:41:15;;;;;;;7.60;4.13;;;24.70;99.90;;;;;;7399201;19;20026;-65
2023/07/07 07:43:41;;;;;;;5.50;2.80;;;24.90;99.90;;;;;;7400797;19;20362;-64
2023/07/07 07:46:07;;;;;;;6.53;3.13;;;25.10;99.90;;;;;;7398993;19;20007;-65
2023/07/07 07:48:34;;;;;;;8.32;6.00;;;25.20;99.90;;;;;;7395445;19;20022;-65
2023/07/07 07:51:00;;;;;;;4.82;2.67;;;25.30;99.90;;;;;;7394811;19;20014;-65
2023/07/07 07:53:26;;;;;;;4.50;2.33;;;25.40;99.90;;;;;;7398288;19;20481;-65
2023/07/07 07:55:53;;;;;;;3.80;2.28;;;25.50;99.90;;;;;;7396291;19;20023;-65
2023/07/07 07:58:19;;;;;;;7.32;4.05;;;25.60;99.90;;;;;;7389183;19;20052;-65
2023/07/07 08:00:45;;;;;;;6.88;2.67;;;25.80;99.90;;;;;;7389542;19;20031;-65
2023/07/07 08:03:12;;;;;;;5.85;2.55;;;25.80;99.50;;;;;;7389921;19;20014;-61
2023/07/07 08:05:39;;;;;;;4.70;2.90;;;25.80;98.60;;;;;;7386573;19;20026;-61
2023/07/07 08:08:05;;;;;;;5.78;2.60;;;26.00;98.90;;;;;;7381630;19;20014;-61
2023/07/07 08:10:31;;;;;;;6.22;2.72;;;26.20;97.90;;;;;;7382309;19;20015;-61
2023/07/07 08:12:59;;;;;;;5.53;2.95;;;26.20;97.40;;;;;;7388599;19;20376;-65
2023/07/07 08:15:25;;;;;;;8.65;5.25;;;26.20;95.10;;;;;;7395988;19;20018;-64
2023/07/07 08:17:52;;;;;;;5.90;3.35;;;26.30;93.60;;;;;;7398202;19;20472;-66
2023/07/07 08:20:19;;;;;;;6.95;2.70;;;26.50;95.30;;;;;;7395991;19;20022;-64
2023/07/07 08:22:46;;;;;;;5.82;2.67;;;26.70;95.20;;;;;;7395993;19;20010;-64
2023/07/07 08:25:12;;;;;;;6.63;3.90;;;26.80;94.10;;;;;;7389552;19;20026;-64
2023/07/07 08:27:39;;;;;;;5.53;2.90;;;26.90;91.90;;;;;;7387272;19;20045;-64
2023/07/07 08:30:06;;;;;;;12.48;10.07;;;27.00;91.60;;;;;;7379320;19;20025;-65
2023/07/07 08:32:32;;;;;;;12.45;11.25;;;27.00;89.00;;;;;;7377813;19;20610;-64
2023/07/07 08:34:58;;;;;;;5.85;3.65;;;27.30;86.80;;;;;;7382992;19;20853;-65
2023/07/07 08:37:29;;;;;;;5.03;2.83;;;27.40;86.40;;;;;;7391974;19;20026;-63
2023/07/07 08:39:55;;;;;;;5.13;2.58;;;27.30;84.40;;;;;;7378108;19;20011;-64
2023/07/07 08:42:30;;;;;;;4.40;2.50;;;27.60;83.80;;;;;;7379890;19;20029;-64
2023/07/07 08:44:59;;;;;;;6.10;3.00;;;27.80;83.30;;;;;;7380336;19;20023;-64
2023/07/07 08:48:14;;;;;;;8.45;6.13;;;27.80;83.00;;;;;;7381602;19;20313;-64
2023/07/07 08:50:46;;;;;;;4.68;3.03;;;28.10;72.10;;;;;;7380926;19;20018;-64
2023/07/07 08:53:30;;;;;;;10.50;8.20;;;27.90;75.10;;;;;;7377371;19;20030;-63
2023/07/07 08:56:06;;;;;;;7.60;3.95;;;27.90;68.90;;;;;;7383825;19;20461;-64
2023/07/07 08:58:44;;;;;;;26.50;23.77;;;27.90;66.70;;;;;;7383493;19;20105;-60
2023/07/07 09:01:35;;;;;;;8.93;6.97;;;27.90;70.40;;;;;;7391985;19;20014;-66
2023/07/07 09:04:08;;;;;;;10.48;8.05;;;27.90;62.80;;;;;;7378660;19;20018;-63
2023/07/07 09:06:49;;;;;;;19.35;16.80;;;28.10;60.20;;;;;;7397980;19;20019;-63
2023/07/07 09:09:34;;;;;;;49.70;45.35;;;28.20;60.70;;;;;;7394503;19;20014;-63
2023/07/07 09:12:24;;;;;;;36.70;33.33;;;28.20;67.70;;;;;;7390077;19;20365;-63
2023/07/07 09:14:53;;;;;;;8.27;5.88;;;28.30;66.20;;;;;;7395743;19;20366;-63
2023/07/07 09:17:25;;;;;;;5.40;2.97;;;28.40;64.20;;;;;;7393411;19;20477;-63
2023/07/07 09:19:54;;;;;;;7.88;6.63;;;28.50;64.00;;;;;;7395370;19;20082;-63
2023/07/07 09:22:30;;;;;;;6.95;4.22;;;28.90;63.10;;;;;;7395539;19;20015;-63
2023/07/07 09:25:05;;;;;;;10.38;4.18;;;29.00;64.20;;;;;;7388005;19;20781;-65
2023/07/07 09:27:45;;;;;;;6.20;2.55;;;28.90;59.50;;;;;;7381825;19;20025;-63
2023/07/07 09:30:22;;;;;;;3.63;2.28;;;28.80;59.70;;;;;;7391218;19;20470;-63
2023/07/07 09:32:48;;;;;;;12.27;10.18;;;29.00;59.70;;;;;;7392198;19;20010;-63
2023/07/07 09:35:15;;;;;;;21.65;19.70;;;29.10;59.70;;;;;;7387204;19;20765;-63
2023/07/07 09:38:15;;;;;;;4.75;2.88;;;29.30;58.20;;;;;;7391314;19;20014;-64
2023/07/07 09:41:31;;;;;;;19.98;18.23;;;29.50;56.30;;;;;;7389621;19;20018;-65
2023/07/07 09:44:30;;;;;;;5.00;2.88;;;29.50;57.20;;;;;;7382051;19;20042;-64
2023/07/07 09:47:05;;;;;;;9.32;7.00;;;29.70;56.30;;;;;;7380621;19;20050;-64
2023/07/07 09:49:34;;;;;;;4.53;2.33;;;29.80;55.80;;;;;;7380966;19;20472;-64
2023/07/07 09:52:27;;;;;;;5.50;2.95;;;30.10;56.30;;;;;;7380350;19;20015;-63
2023/07/07 09:54:57;;;;;;;7.72;5.38;;;30.10;58.60;;;;;;7388588;19;20018;-63
2023/07/07 09:57:48;;;;;;;4.40;2.60;;;30.10;54.50;;;;;;7386498;19;20757;-63
2023/07/07 10:00:17;;;;;;;5.03;2.17;;;29.90;52.30;;;;;;7378297;19;20343;-62
2023/07/07 10:02:46;;;;;;;4.32;2.25;;;30.10;52.80;;;;;;7377586;19;20501;-62
2023/07/07 10:05:20;;;;;;;5.60;2.20;;;30.10;50.70;;;;;;7379129;19;20023;-62
2023/07/07 10:07:51;;;;;;;3.88;2.20;;;29.90;48.80;;;;;;7377567;19;20047;-62
2023/07/07 10:10:18;;;;;;;6.82;2.60;;;30.00;50.80;;;;;;7380820;19;20052;-66
2023/07/07 10:12:46;;;;;;;5.32;2.22;;;30.00;50.40;;;;;;7382684;19;20018;-66
2023/07/07 10:15:35;;;;;;;4.75;2.85;;;30.20;52.00;;;;;;7384101;19;20022;-66
2023/07/07 10:18:12;;;;;;;5.80;2.20;;;30.30;49.60;;;;;;7378815;19;20018;-61
2023/07/07 10:20:40;;;;;;;5.45;2.50;;;30.40;52.30;;;;;;7371631;19;20022;-61
2023/07/07 10:23:11;;;;;;;4.22;2.10;;;30.80;53.50;;;;;;7378914;19;20021;-59
2023/07/07 10:25:38;;;;;;;5.00;2.13;;;30.70;50.30;;;;;;7375146;19;20041;-61
2023/07/07 10:28:08;;;;;;;4.70;2.65;;;31.10;50.80;;;;;;7375931;19;20026;-61
2023/07/07 10:30:37;;;;;;;5.07;2.47;;;31.00;50.40;;;;;;7367637;19;20027;-68
2023/07/07 10:33:03;;;;;;;3.90;2.20;;;31.40;49.30;;;;;;7368406;19;20022;-68
2023/07/07 10:35:31;;;;;;;4.40;2.45;;;31.40;49.90;;;;;;7371649;19;20023;-68
2023/07/07 10:38:05;;;;;;;3.78;2.28;;;31.30;48.00;;;;;;7372408;19;20031;-68
2023/07/07 10:40:32;;;;;;;12.65;10.95;;;30.80;46.30;;;;;;7373805;19;20713;-67
2023/07/07 10:42:58;;;;;;;9.60;7.50;;;31.00;48.20;;;;;;7373812;19;20054;-68
2023/07/07 10:45:28;;;;;;;6.47;3.00;;;31.20;48.20;;;;;;7373054;19;20481;-66
2023/07/07 10:47:56;;;;;;;4.78;2.92;;;31.40;48.30;;;;;;7372461;19;20033;-66
2023/07/07 10:50:27;;;;;;;16.70;14.95;;;31.20;46.10;;;;;;7371814;19;20498;-66
2023/07/07 10:53:12;;;;;;;4.50;2.70;;;31.30;46.40;;;;;;7371977;19;20026;-66
2023/07/07 10:56:01;;;;;;;6.93;4.90;;;31.20;48.70;;;;;;7382016;19;20026;-65
2023/07/07 10:58:55;;;;;;;6.20;2.72;;;31.20;47.30;;;;;;7390330;19;20014;-65
2023/07/07 11:01:27;;;;;;;6.63;4.15;;;31.30;47.40;;;;;;7389215;19;20799;-63
2023/07/07 11:04:37;;;;;;;5.28;3.42;;;31.30;45.30;;;;;;7388783;19;20545;-65
2023/07/07 11:07:45;;;;;;;6.25;2.92;;;31.20;44.80;;;;;;7391064;19;20369;-65
2023/07/07 11:10:36;;;;;;;4.70;2.63;;;30.90;45.70;;;;;;7377770;19;20029;-66
2023/07/07 11:13:58;;;;;;;62.15;56.88;;;30.80;44.60;;;;;;7379515;19;20053;-66
2023/07/07 11:16:55;;;;;;;5.30;3.30;;;30.90;45.80;;;;;;7373345;19;20018;-66
2023/07/07 11:19:56;;;;;;;15.87;14.33;;;31.10;45.20;;;;;;7374756;19;20925;-66
2023/07/07 11:23:16;;;;;;;23.95;21.80;;;31.10;45.00;;;;;;7387083;19;20022;-64
2023/07/07 11:26:11;;;;;;;3.67;1.92;;;31.20;45.10;;;;;;7388071;19;20052;-64
2023/07/07 11:29:09;;;;;;;2.72;1.98;;;31.00;41.80;;;;;;7387432;19;20026;-64
2023/07/07 11:31:54;;;;;;;4.28;2.05;;;31.10;44.50;;;;;;7384659;19;20018;-64
2023/07/07 11:34:33;;;;;;;6.20;2.75;;;31.20;44.90;;;;;;7388328;19;20033;-64
2023/07/07 11:37:05;;;;;;;4.72;2.45;;;31.20;46.00;;;;;;7373267;19;20026;-65
2023/07/07 11:39:55;;;;;;;5.53;3.13;;;31.40;44.50;;;;;;7381671;19;20019;-64
2023/07/07 11:42:44;;;;;;;6.13;3.25;;;31.40;43.20;;;;;;7386332;19;20019;-68
2023/07/07 11:45:42;;;;;;;6.93;5.07;;;31.50;41.60;;;;;;7377877;19;20014;-66
2023/07/07 11:48:53;;;;;;;6.38;3.00;;;31.30;43.20;;;;;;7372487;19;20018;-66
2023/07/07 11:51:37;;;;;;;3.50;2.45;;;31.50;42.00;;;;;;7371949;19;20376;-65
2023/07/07 11:54:24;;;;;;;3.22;2.30;;;31.50;42.80;;;;;;7374227;19;20027;-65
2023/07/07 11:57:23;;;;;;;4.07;2.50;;;31.60;43.10;;;;;;7377710;19;20014;-64
2023/07/07 12:00:05;;;;;;;4.53;2.20;;;31.50;40.90;;;;;;7387610;19;20023;-64
2023/07/07 12:02:45;;;;;;;4.07;2.45;;;31.40;41.30;;;;;;7394956;19;20358;-64
2023/07/07 12:05:32;;;;;;;21.58;19.42;;;31.50;42.90;;;;;;7379849;19;20339;-63
2023/07/07 12:08:15;;;;;;;6.82;5.50;;;31.60;43.80;;;;;;7380648;19;20525;-63
2023/07/07 12:10:53;;;;;;;36.25;33.08;;;31.10;40.90;;;;;;7382099;19;20497;-63
2023/07/07 12:13:27;;;;;;;5.40;3.20;;;31.40;42.10;;;;;;7379916;19;20478;-64
2023/07/07 12:16:12;;;;;;;12.15;8.57;;;31.70;42.60;;;;;;7380332;19;20025;-65
2023/07/07 12:18:41;;;;;;;4.32;3.42;;;31.10;41.10;;;;;;7371736;19;21711;-64
2023/07/07 12:21:14;;;;;;;5.70;2.83;;;31.20;43.30;;;;;;7375234;19;20776;-65
2023/07/07 12:23:51;;;;;;;8.02;3.33;;;31.50;41.00;;;;;;7375176;19;20011;-67
2023/07/07 12:26:29;;;;;;;5.40;3.13;;;31.40;40.30;;;;;;7377301;19;20022;-63
2023/07/07 12:28:59;;;;;;;4.43;2.55;;;31.70;42.10;;;;;;7383519;19;20354;-63
2023/07/07 12:31:27;;;;;;;8.18;7.38;;;31.50;40.80;;;;;;7383528;19;20010;-64
2023/07/07 12:33:54;;;;;;;8.50;5.90;;;31.60;40.90;;;;;;7377183;19;20015;-64
2023/07/07 12:36:28;;;;;;;10.35;9.13;;;31.80;41.30;;;;;;7374497;19;20018;-65
2023/07/07 12:39:00;;;;;;;15.60;13.60;;;32.20;41.50;;;;;;7377428;19;20039;-64
2023/07/07 12:41:29;;;;;;;3.45;2.38;;;32.30;41.40;;;;;;7380847;19;20050;-62
2023/07/07 12:44:03;;;;;;;5.85;3.05;;;32.50;40.80;;;;;;7377615;19;20018;-66
2023/07/07 12:46:34;;;;;;;3.90;2.50;;;32.70;40.60;;;;;;7380434;19;20457;-64
2023/07/07 12:49:04;;;;;;;;;;;32.60;39.90;;;;;;7381603;19;20014;-66
2023/07/07 12:51:35;;;;;;;5.97;4.47;;;32.40;37.60;;;;;;7381834;19;19933;-66
2023/07/07 12:54:01;;;;;;;13.70;11.85;;;32.20;36.80;;;;;;7375488;19;20015;-66
2023/07/07 12:56:30;;;;;;;7.78;6.57;;;32.40;38.20;;;;;;7375013;19;20019;-66
2023/07/07 12:58:58;;;;;;;10.63;8.30;;;32.50;38.70;;;;;;7373931;19;20504;-66
2023/07/07 13:01:39;;;;;;;8.65;5.97;;;33.00;36.80;;;;;;7374510;19;20018;-66
2023/07/07 13:04:05;;;;;;;3.60;2.03;;;32.70;35.50;;;;;;7372693;19;20026;-64
2023/07/07 13:06:32;;;;;;;6.10;5.20;;;32.30;35.30;;;;;;7370600;19;20359;-64